createdAt,value
2018-06-09T00:11:50.251Z,17.35
2018-06-09T00:14:22.047Z,17.48
2018-06-09T00:16:55.733Z,17.43
2018-06-09T00:24:55.340Z,17.33
2018-06-09T00:28:06.265Z,17.34
2018-06-09T01:08:55.043Z,17.20
2018-06-09T01:14:23.975Z,17.12
2018-06-09T01:17:03.100Z,17.10
2018-06-09T01:55:26.779Z,16.73
2018-06-09T02:04:23.147Z,16.70
2018-06-09T02:11:03.211Z,16.63
2018-06-09T02:16:53.233Z,16.54
2018-06-09T02:25:56.941Z,16.52
2018-06-09T03:42:50.488Z,16.31
2018-06-09T03:45:25.173Z,16.24
2018-06-09T03:48:00.515Z,16.28
2018-06-09T04:05:44.548Z,16.24
2018-06-09T04:29:47.900Z,16.60
2018-06-09T04:32:19.318Z,16.58
2018-06-09T04:34:53.823Z,16.62
2018-06-09T04:37:24.365Z,16.69
2018-06-09T04:39:54.256Z,16.80
2018-06-09T04:42:24.116Z,16.84
2018-06-09T04:44:54.223Z,16.85
2018-06-09T04:47:24.068Z,16.94
2018-06-09T04:49:54.195Z,16.97
2018-06-09T04:52:25.319Z,17.03
2018-06-09T04:54:55.003Z,17.07
2018-06-09T04:57:24.696Z,17.12
2018-06-09T04:59:59.980Z,17.24
2018-06-09T05:02:30.895Z,17.34
2018-06-09T05:05:03.371Z,17.38
2018-06-09T05:07:33.330Z,17.46
2018-06-09T05:10:08.519Z,17.56
2018-06-09T05:12:38.096Z,17.60
2018-06-09T05:15:08.373Z,17.68
2018-06-09T05:17:38.058Z,17.75
2018-06-09T05:20:20.946Z,17.79
2018-06-09T05:22:51.370Z,17.88
2018-06-09T05:25:21.116Z,17.89
2018-06-09T05:27:52.065Z,17.97
2018-06-09T05:30:39.317Z,17.98
2018-06-09T05:33:09.478Z,18.06
2018-06-09T05:35:40.662Z,18.12
2018-06-09T05:38:10.487Z,18.14
2018-06-09T05:40:40.252Z,18.20
2018-06-09T05:43:10.188Z,18.27
2018-06-09T05:45:39.805Z,18.35
2018-06-09T05:48:09.765Z,18.45
2018-06-09T05:50:39.971Z,18.52
2018-06-09T05:53:09.671Z,18.66
2018-06-09T05:55:39.613Z,18.79
2018-06-09T05:58:29.927Z,19.15
2018-06-09T06:09:49.994Z,19.53
2018-06-09T06:12:23.338Z,19.62
2018-06-09T06:14:53.698Z,19.65
2018-06-09T06:17:23.990Z,19.71
2018-06-09T06:19:57.700Z,19.83
2018-06-09T06:29:37.525Z,20.02
2018-06-09T06:32:07.471Z,20.69
2018-06-09T06:34:37.249Z,20.86
2018-06-09T06:37:06.714Z,20.80
2018-06-09T06:39:36.215Z,20.81
2018-06-09T06:42:05.752Z,20.85
2018-06-09T06:44:35.675Z,20.91
2018-06-09T06:47:07.732Z,20.99
2018-06-09T06:49:37.265Z,20.96
2018-06-09T06:52:07.308Z,20.89
2018-06-09T06:54:37.392Z,21.05
2018-06-09T06:57:08.181Z,21.13
2018-06-09T06:59:37.772Z,21.29
2018-06-09T07:02:07.349Z,21.45
2018-06-09T07:04:36.860Z,21.61
2018-06-09T07:07:06.822Z,21.63
2018-06-09T07:09:36.258Z,21.69
2018-06-09T07:12:14.769Z,21.62
2018-06-09T07:14:51.193Z,21.44
2018-06-09T07:17:22.508Z,21.31
2018-06-09T07:19:52.144Z,21.20
2018-06-09T07:22:25.964Z,21.16
2018-06-09T07:24:56.541Z,21.13
2018-06-09T07:27:26.351Z,21.10
2018-06-09T07:29:55.794Z,21.13
2018-06-09T07:32:25.759Z,21.33
2018-06-09T07:34:55.591Z,21.57
2018-06-09T07:37:26.921Z,21.77
2018-06-09T07:39:58.896Z,21.89
2018-06-09T07:42:29.119Z,21.99
2018-06-09T07:45:03.356Z,22.33
2018-06-09T07:47:33.634Z,22.59
2018-06-09T07:50:04.698Z,22.83
2018-06-09T07:52:35.757Z,23.13
2018-06-09T07:55:05.443Z,23.24
2018-06-09T07:57:35.105Z,23.09
2018-06-09T08:00:04.776Z,23.09
2018-06-09T08:02:34.480Z,23.04
2018-06-09T08:05:05.242Z,22.97
2018-06-09T08:07:35.417Z,22.99
2018-06-09T08:10:04.887Z,22.97
2018-06-09T08:12:34.447Z,22.82
2018-06-09T08:15:04.188Z,22.88
2018-06-09T08:17:34.979Z,23.00
2018-06-09T08:20:04.606Z,23.18
2018-06-09T08:22:34.301Z,23.50
2018-06-09T08:25:05.113Z,23.91
2018-06-09T08:27:34.810Z,24.36
2018-06-09T08:30:05.294Z,24.48
2018-06-09T08:32:37.008Z,24.43
2018-06-09T08:35:07.038Z,24.46
2018-06-09T08:37:37.949Z,24.15
2018-06-09T08:40:07.985Z,23.99
2018-06-09T08:42:42.361Z,23.74
2018-06-09T08:45:15.314Z,23.71
2018-06-09T08:47:49.338Z,23.45
2018-06-09T08:50:19.347Z,24.19
2018-06-09T08:52:49.918Z,25.46
2018-06-09T08:55:23.796Z,26.42
2018-06-09T08:57:53.709Z,27.11
2018-06-09T09:00:25.534Z,28.02
2018-06-09T09:02:55.369Z,27.90
2018-06-09T09:05:24.979Z,28.63
2018-06-09T09:07:54.443Z,29.82
2018-06-09T09:10:24.550Z,29.56
2018-06-09T09:12:54.321Z,28.49
2018-06-09T09:15:26.285Z,27.48
2018-06-09T09:17:55.984Z,26.68
2018-06-09T09:20:25.577Z,25.89
2018-06-09T09:22:56.440Z,26.44
2018-06-09T09:25:27.051Z,28.10
2018-06-09T09:27:56.587Z,29.29
2018-06-09T09:30:26.341Z,30.11
2018-06-09T09:32:56.930Z,30.78
2018-06-09T09:35:26.580Z,30.85
2018-06-09T09:37:56.042Z,29.96
2018-06-09T09:40:36.988Z,29.66
2018-06-09T09:43:06.939Z,30.66
2018-06-09T09:45:46.030Z,30.81
2018-06-09T09:49:05.107Z,32.41
2018-06-09T09:51:35.252Z,33.06
2018-06-09T09:54:07.594Z,33.26
2018-06-09T09:56:52.380Z,32.45
2018-06-09T09:59:31.462Z,32.89
2018-06-09T10:02:05.374Z,31.13
2018-06-09T10:04:37.210Z,30.03
2018-06-09T10:07:08.916Z,29.29
2018-06-09T10:09:47.109Z,28.64
2018-06-09T10:12:24.707Z,28.18
2018-06-09T10:15:00.036Z,27.43
2018-06-09T10:20:24.360Z,27.34
2018-06-09T10:22:59.154Z,27.74
2018-06-09T10:25:28.711Z,27.62
2018-06-09T10:28:00.627Z,27.85
2018-06-09T10:30:30.715Z,29.49
2018-06-09T10:33:02.710Z,30.03
2018-06-09T10:35:32.569Z,30.92
2018-06-09T10:38:02.204Z,31.72
2018-06-09T10:40:32.002Z,32.14
2018-06-09T10:43:01.824Z,32.30
2018-06-09T10:45:32.457Z,32.97
2018-06-09T10:48:02.116Z,33.60
2018-06-09T10:50:31.537Z,33.30
2018-06-09T10:53:02.255Z,32.29
2018-06-09T10:55:31.790Z,32.97
2018-06-09T10:58:01.608Z,32.91
2018-06-09T11:00:31.472Z,32.26
2018-06-09T11:08:49.647Z,31.62
2018-06-09T11:11:19.982Z,30.34
2018-06-09T11:13:49.829Z,29.22
2018-06-09T11:16:19.319Z,29.08
2018-06-09T11:18:51.422Z,28.36
2018-06-09T11:21:20.897Z,29.02
2018-06-09T11:23:51.303Z,30.37
2018-06-09T11:26:20.813Z,31.16
2018-06-09T11:28:57.383Z,32.00
2018-06-09T11:31:27.269Z,32.73
2018-06-09T11:33:56.980Z,32.00
2018-06-09T11:36:27.932Z,30.87
2018-06-09T11:38:58.115Z,29.36
2018-06-09T11:41:27.644Z,28.37
2018-06-09T11:43:57.965Z,27.98
2018-06-09T11:46:27.634Z,27.64
2018-06-09T11:48:57.117Z,27.55
2018-06-09T11:51:26.954Z,30.05
2018-06-09T11:53:56.702Z,32.47
2018-06-09T11:56:26.808Z,33.23
2018-06-09T11:58:56.730Z,32.28
2018-06-09T12:01:26.192Z,30.93
2018-06-09T12:03:55.692Z,29.57
2018-06-09T12:06:27.787Z,28.64
2018-06-09T12:08:57.987Z,27.85
2018-06-09T12:11:35.398Z,28.07
2018-06-09T12:14:06.094Z,29.99
2018-06-09T12:16:35.722Z,32.36
2018-06-09T12:19:05.226Z,34.07
2018-06-09T12:21:34.950Z,35.36
2018-06-09T12:24:04.528Z,35.68
2018-06-09T12:26:39.032Z,35.30
2018-06-09T12:29:08.537Z,35.29
2018-06-09T12:31:37.968Z,35.68
2018-06-09T12:34:07.856Z,35.87
2018-06-09T12:36:37.260Z,36.41
2018-06-09T12:39:08.203Z,34.85
2018-06-09T12:41:37.609Z,32.88
2018-06-09T12:44:07.168Z,30.94
2018-06-09T12:46:36.602Z,29.86
2018-06-09T12:49:10.138Z,29.23
2018-06-09T12:51:39.586Z,29.26
2018-06-09T12:54:09.053Z,29.62
2018-06-09T12:56:40.637Z,30.33
2018-06-09T12:59:10.604Z,30.84
2018-06-09T13:01:44.528Z,30.88
2018-06-09T13:04:14.382Z,31.53
2018-06-09T13:06:44.330Z,32.11
2018-06-09T13:09:14.051Z,32.99
2018-06-09T13:11:43.716Z,32.63
2018-06-09T13:14:14.717Z,31.32
2018-06-09T13:16:44.551Z,30.39
2018-06-09T13:19:14.038Z,29.88
2018-06-09T13:21:43.778Z,29.35
2018-06-09T13:24:14.151Z,29.29
2018-06-09T13:26:43.940Z,28.84
2018-06-09T13:29:14.511Z,28.53
2018-06-09T13:31:44.176Z,28.17
2018-06-09T13:34:13.999Z,27.85
2018-06-09T13:36:43.915Z,27.45
2018-06-09T13:39:13.679Z,27.21
2018-06-09T13:41:43.427Z,27.05
2018-06-09T13:44:21.630Z,26.99
2018-06-09T13:46:51.585Z,26.78
2018-06-09T13:49:21.290Z,26.57
2018-06-09T13:51:50.928Z,26.49
2018-06-09T13:54:20.872Z,26.33
2018-06-09T13:56:50.478Z,26.31
2018-06-09T13:59:20.623Z,26.24
2018-06-09T14:01:50.260Z,26.03
2018-06-09T14:04:20.303Z,25.79
2018-06-09T14:06:50.872Z,25.72
2018-06-09T14:09:24.907Z,25.64
2018-06-09T14:11:54.467Z,25.63
2018-06-09T14:14:25.406Z,25.64
2018-06-09T14:16:55.136Z,25.40
2018-06-09T14:19:36.771Z,25.33
2018-06-09T14:22:06.278Z,25.14
2018-06-09T14:24:36.819Z,24.63
2018-06-09T14:27:08.792Z,24.32
2018-06-09T14:29:48.275Z,24.06
2018-06-09T14:32:18.922Z,23.88
2018-06-09T14:34:48.439Z,23.51
2018-06-09T14:37:18.292Z,22.91
2018-06-09T14:39:47.928Z,22.76
2018-06-09T14:42:17.893Z,22.60
2018-06-09T14:44:47.463Z,22.58
2018-06-09T14:47:17.490Z,22.55
2018-06-09T14:49:47.109Z,22.39
2018-06-09T14:52:19.709Z,22.30
2018-06-09T14:54:49.155Z,22.31
2018-06-09T14:57:18.798Z,22.21
2018-06-09T14:59:48.696Z,21.84
2018-06-09T15:02:18.237Z,21.74
2018-06-09T15:04:47.662Z,21.76
2018-06-09T15:07:25.974Z,21.79
2018-06-09T15:09:55.557Z,21.70
2018-06-09T15:12:25.042Z,21.71
2018-06-09T15:14:54.486Z,21.73
2018-06-09T15:17:27.734Z,21.66
2018-06-09T15:19:57.221Z,21.71
2018-06-09T15:22:26.750Z,21.72
2018-06-09T15:24:56.170Z,21.96
2018-06-09T15:27:25.608Z,22.07
2018-06-09T15:29:55.299Z,22.27
2018-06-09T15:32:26.847Z,22.37
2018-06-09T15:34:56.312Z,22.50
2018-06-09T15:37:25.781Z,22.67
2018-06-09T15:39:56.779Z,22.82
2018-06-09T15:42:27.502Z,22.94
2018-06-09T15:44:57.708Z,23.00
2018-06-09T15:47:29.068Z,23.09
2018-06-09T15:49:59.081Z,23.11
2018-06-09T15:52:31.219Z,23.20
2018-06-09T15:55:01.804Z,23.26
2018-06-09T15:57:31.620Z,23.21
2018-06-09T16:00:01.137Z,23.23
2018-06-09T16:02:32.982Z,23.28
2018-06-09T16:05:02.567Z,23.38
2018-06-09T16:07:32.170Z,23.45
2018-06-09T16:10:01.611Z,23.51
2018-06-09T16:12:37.876Z,23.47
2018-06-09T16:15:07.590Z,23.51
2018-06-09T16:17:38.483Z,23.56
2018-06-09T16:20:10.237Z,23.56
2018-06-09T16:22:40.565Z,23.57
2018-06-09T16:25:10.102Z,23.59
2018-06-09T16:27:39.589Z,23.53
2018-06-09T16:30:17.778Z,23.49
2018-06-09T16:32:47.198Z,23.48
2018-06-09T16:35:16.873Z,23.53
2018-06-09T16:37:46.665Z,23.46
2018-06-09T16:40:16.738Z,23.43
2018-06-09T16:42:46.414Z,23.44
2018-06-09T16:45:16.650Z,23.42
2018-06-09T16:47:46.326Z,23.37
2018-06-09T16:50:15.997Z,23.38
2018-06-09T16:52:46.035Z,23.52
2018-06-09T16:55:15.482Z,23.50
2018-06-09T16:57:46.131Z,23.49
2018-06-09T17:00:16.307Z,23.38
2018-06-09T17:02:46.097Z,23.20
2018-06-09T17:05:15.527Z,23.12
2018-06-09T17:07:45.018Z,23.16
2018-06-09T17:10:14.510Z,23.15
2018-06-09T17:12:44.220Z,23.11
2018-06-09T17:15:15.124Z,23.11
2018-06-09T17:17:44.603Z,23.16
2018-06-09T17:20:14.084Z,23.17
2018-06-09T17:22:43.662Z,23.13
2018-06-09T17:25:18.299Z,23.12
2018-06-09T17:27:48.312Z,23.12
2018-06-09T17:30:21.046Z,23.14
2018-06-09T17:32:57.057Z,23.12
2018-06-09T17:35:26.660Z,23.10
2018-06-09T17:37:56.116Z,23.18
2018-06-09T17:40:30.985Z,23.13
2018-06-09T17:43:01.210Z,23.08
2018-06-09T17:45:33.132Z,23.06
2018-06-09T17:48:05.193Z,23.19
2018-06-09T17:50:34.711Z,23.26
2018-06-09T17:53:10.467Z,23.28
2018-06-09T17:55:40.440Z,23.27
2018-06-09T17:58:10.319Z,23.33
2018-06-09T18:00:40.845Z,23.34
2018-06-09T18:05:56.421Z,23.42
2018-06-09T18:08:25.964Z,23.46
2018-06-09T18:10:57.642Z,23.53
2018-06-09T18:13:28.044Z,23.44
2018-06-09T18:15:57.464Z,23.33
2018-06-09T18:18:27.178Z,23.40
2018-06-09T18:21:08.982Z,23.53
2018-06-09T18:23:39.069Z,23.27
2018-06-09T18:26:08.524Z,23.24
2018-06-09T18:28:38.206Z,23.22
2018-06-09T18:31:08.116Z,23.23
2018-06-09T18:33:38.958Z,23.19
2018-06-09T18:36:08.451Z,23.16
2018-06-09T18:38:37.976Z,23.18
2018-06-09T18:41:08.604Z,23.00
2018-06-09T18:43:39.364Z,22.79
2018-06-09T18:46:08.803Z,22.61
2018-06-09T18:48:38.274Z,22.55
2018-06-09T18:51:08.767Z,22.49
2018-06-09T18:53:38.718Z,22.34
2018-06-09T18:56:08.296Z,22.23
2018-06-09T18:58:37.889Z,22.12
2018-06-09T19:01:07.396Z,22.00
2018-06-09T19:03:36.937Z,21.98
2018-06-09T19:06:06.663Z,21.94
2018-06-09T19:08:44.868Z,21.89
2018-06-09T19:11:14.530Z,21.82
2018-06-09T19:13:44.018Z,21.71
2018-06-09T19:16:18.387Z,21.73
2018-06-09T19:18:47.969Z,21.72
2018-06-09T19:21:17.425Z,21.69
2018-06-09T19:23:46.917Z,21.51
2018-06-09T19:26:17.101Z,21.48
2018-06-09T19:28:46.543Z,21.28
2018-06-09T19:31:16.312Z,21.24
2018-06-09T19:33:45.784Z,21.15
2018-06-09T19:36:15.516Z,21.08
2018-06-09T19:38:54.016Z,21.19
2018-06-09T19:41:23.694Z,21.19
2018-06-09T19:43:53.303Z,21.19
2018-06-09T19:46:22.876Z,21.22
2018-06-09T19:48:52.430Z,21.18
2018-06-09T19:51:21.936Z,21.19
2018-06-09T19:53:52.270Z,21.09
2018-06-09T19:56:21.953Z,21.01
2018-06-09T19:58:53.625Z,20.94
2018-06-09T20:01:23.860Z,20.93
2018-06-09T20:03:54.351Z,20.81
2018-06-09T20:06:26.971Z,20.72
2018-06-09T20:08:58.493Z,20.64
2018-06-09T20:11:28.370Z,20.60
2018-06-09T20:13:57.888Z,20.55
2018-06-09T20:16:27.486Z,20.43
2018-06-09T20:18:58.508Z,20.32
2018-06-09T20:21:28.103Z,20.24
2018-06-09T20:24:00.096Z,20.13
2018-06-09T20:26:30.143Z,20.02
2018-06-09T20:28:59.697Z,20.02
2018-06-09T20:31:30.515Z,20.01
2018-06-09T20:34:00.358Z,19.98
2018-06-09T20:36:30.039Z,20.10
2018-06-09T20:38:59.876Z,20.14
2018-06-09T20:41:29.309Z,20.17
2018-06-09T20:43:58.796Z,20.06
2018-06-09T20:46:28.263Z,20.05
2018-06-09T20:48:58.692Z,20.10
2018-06-09T20:51:29.344Z,20.13
2018-06-09T20:53:59.652Z,20.08
2018-06-09T20:56:29.215Z,20.10
2018-06-09T20:59:05.869Z,20.17
2018-06-09T21:01:36.118Z,20.11
2018-06-09T21:04:06.068Z,20.03
2018-06-09T21:13:07.564Z,19.92
2018-06-09T21:18:33.526Z,19.86
2018-06-09T21:21:30.402Z,19.87
2018-06-09T21:24:20.698Z,19.77
2018-06-09T21:27:06.735Z,19.76
2018-06-09T21:32:35.999Z,19.59
2018-06-09T21:35:23.256Z,19.60
2018-06-09T21:38:00.975Z,19.59
2018-06-09T21:40:41.808Z,19.52
2018-06-09T21:45:55.256Z,19.36
2018-06-09T21:48:25.827Z,19.28
2018-06-09T21:51:05.876Z,19.31
2018-06-09T21:53:38.406Z,19.31
2018-06-09T21:56:09.511Z,19.25
2018-06-09T21:58:45.850Z,19.10
2018-06-09T22:01:26.693Z,19.07
2018-06-09T22:04:06.378Z,19.14
2018-06-09T22:06:37.199Z,19.13
2018-06-09T22:09:12.682Z,19.12
2018-06-09T22:11:44.770Z,19.02
2018-06-09T22:14:14.703Z,19.07
2018-06-09T22:16:46.270Z,19.13
2018-06-09T22:24:49.871Z,18.91
2018-06-09T22:27:24.109Z,18.92
2018-06-09T22:29:58.451Z,18.92
2018-06-09T22:32:28.219Z,18.94
2018-06-09T22:35:03.915Z,18.98
2018-06-09T22:37:35.312Z,18.91
2018-06-09T22:40:05.419Z,18.89
2018-06-09T22:42:36.104Z,18.87
2018-06-09T22:45:14.047Z,18.87
2018-06-09T22:47:49.280Z,18.87
2018-06-09T22:50:26.314Z,18.92
2018-06-09T22:52:56.040Z,18.83
2018-06-09T22:55:25.755Z,18.80
2018-06-09T22:57:55.586Z,18.83
2018-06-09T23:00:58.169Z,18.88
2018-06-09T23:03:27.824Z,18.83
2018-06-09T23:05:57.858Z,18.71
2018-06-09T23:08:29.688Z,18.77
2018-06-09T23:10:59.481Z,18.72
2018-06-09T23:13:29.139Z,18.70
2018-06-09T23:15:58.748Z,18.68
2018-06-09T23:18:28.732Z,18.67
2018-06-09T23:20:59.213Z,18.64
2018-06-09T23:23:35.254Z,18.61
2018-06-09T23:26:11.260Z,18.55
2018-06-09T23:28:45.172Z,18.57
2018-06-09T23:31:23.192Z,18.51
2018-06-09T23:33:54.218Z,18.50
2018-06-09T23:36:24.488Z,18.45
2018-06-09T23:39:08.415Z,18.43
2018-06-09T23:41:38.743Z,18.38
2018-06-09T23:44:08.470Z,18.43
2018-06-09T23:46:38.244Z,18.37
2018-06-09T23:49:08.176Z,18.35
2018-06-09T23:51:38.008Z,18.38
2018-06-09T23:54:07.799Z,18.34
2018-06-09T23:56:37.306Z,18.28
2018-06-09T23:59:07.171Z,18.18
